sensor_id;sensor_type;location;lat;lon;timestamp;P1;durP1;ratioP1;P2;durP2;ratioP2
67564;SDS011;54393;53.556;49.216;2023-10-19T00:02:06;0.70;;;0.70;;
67564;SDS011;54393;53.556;49.216;2023-10-19T00:04:33;0.75;;;0.75;;
67564;SDS011;54393;53.556;49.216;2023-10-19T00:07:03;0.85;;;0.80;;
67564;SDS011;54393;53.556;49.216;2023-10-19T00:09:34;0.80;;;0.75;;
67564;SDS011;54393;53.556;49.216;2023-10-19T00:12:03;0.77;;;0.77;;
67564;SDS011;54393;53.556;49.216;2023-10-19T00:14:35;0.70;;;0.70;;
67564;SDS011;54393;53.556;49.216;2023-10-19T00:17:01;0.60;;;0.60;;
67564;SDS011;54393;53.556;49.216;2023-10-19T00:19:33;0.62;;;0.62;;
67564;SDS011;54393;53.556;49.216;2023-10-19T00:22:19;0.60;;;0.60;;
67564;SDS011;54393;53.556;49.216;2023-10-19T00:24:46;0.70;;;0.70;;
67564;SDS011;54393;53.556;49.216;2023-10-19T00:27:13;0.90;;;0.90;;
67564;SDS011;54393;53.556;49.216;2023-10-19T00:29:43;0.70;;;0.70;;
67564;SDS011;54393;53.556;49.216;2023-10-19T00:32:20;0.80;;;0.80;;
67564;SDS011;54393;53.556;49.216;2023-10-19T00:34:50;0.80;;;0.80;;
67564;SDS011;54393;53.556;49.216;2023-10-19T00:37:17;0.90;;;0.90;;
67564;SDS011;54393;53.556;49.216;2023-10-19T00:39:57;0.60;;;0.60;;
67564;SDS011;54393;53.556;49.216;2023-10-19T00:42:39;0.85;;;0.85;;
67564;SDS011;54393;53.556;49.216;2023-10-19T00:45:12;0.65;;;0.65;;
67564;SDS011;54393;53.556;49.216;2023-10-19T00:47:38;0.82;;;0.82;;
67564;SDS011;54393;53.556;49.216;2023-10-19T00:50:06;0.80;;;0.80;;
67564;SDS011;54393;53.556;49.216;2023-10-19T00:52:37;0.80;;;0.80;;
67564;SDS011;54393;53.556;49.216;2023-10-19T00:55:09;0.98;;;0.98;;
67564;SDS011;54393;53.556;49.216;2023-10-19T00:57:38;0.62;;;0.62;;
67564;SDS011;54393;53.556;49.216;2023-10-19T01:00:07;0.90;;;0.90;;
67564;SDS011;54393;53.556;49.216;2023-10-19T01:02:39;0.80;;;0.80;;
67564;SDS011;54393;53.556;49.216;2023-10-19T01:05:10;0.85;;;0.85;;
67564;SDS011;54393;53.556;49.216;2023-10-19T01:07:38;1.00;;;1.00;;
67564;SDS011;54393;53.556;49.216;2023-10-19T01:10:10;0.62;;;0.62;;
67564;SDS011;54393;53.556;49.216;2023-10-19T01:12:46;0.70;;;0.70;;
67564;SDS011;54393;53.556;49.216;2023-10-19T01:15:16;0.85;;;0.85;;
67564;SDS011;54393;53.556;49.216;2023-10-19T01:17:53;0.90;;;0.90;;
67564;SDS011;54393;53.556;49.216;2023-10-19T01:20:24;0.70;;;0.70;;
67564;SDS011;54393;53.556;49.216;2023-10-19T01:22:55;0.98;;;0.98;;
67564;SDS011;54393;53.556;49.216;2023-10-19T01:28:12;0.80;;;0.80;;
67564;SDS011;54393;53.556;49.216;2023-10-19T01:30:42;1.02;;;0.80;;
67564;SDS011;54393;53.556;49.216;2023-10-19T01:33:10;0.70;;;0.70;;
67564;SDS011;54393;53.556;49.216;2023-10-19T01:35:43;0.70;;;0.70;;
67564;SDS011;54393;53.556;49.216;2023-10-19T01:38:29;0.80;;;0.80;;
67564;SDS011;54393;53.556;49.216;2023-10-19T01:40:57;2.50;;;0.88;;
67564;SDS011;54393;53.556;49.216;2023-10-19T01:43:27;0.90;;;0.90;;
67564;SDS011;54393;53.556;49.216;2023-10-19T01:45:59;0.80;;;0.80;;
67564;SDS011;54393;53.556;49.216;2023-10-19T01:48:42;1.42;;;0.80;;
67564;SDS011;54393;53.556;49.216;2023-10-19T01:51:10;1.05;;;0.73;;
67564;SDS011;54393;53.556;49.216;2023-10-19T01:53:39;0.90;;;0.90;;
67564;SDS011;54393;53.556;49.216;2023-10-19T01:56:12;1.12;;;0.77;;
67564;SDS011;54393;53.556;49.216;2023-10-19T01:58:40;0.90;;;0.90;;
67564;SDS011;54393;53.556;49.216;2023-10-19T02:01:09;0.90;;;0.90;;
67564;SDS011;54393;53.556;49.216;2023-10-19T02:03:38;0.73;;;0.73;;
67564;SDS011;54393;53.556;49.216;2023-10-19T02:06:09;0.90;;;0.90;;
67564;SDS011;54393;53.556;49.216;2023-10-19T02:08:48;0.90;;;0.90;;
67564;SDS011;54393;53.556;49.216;2023-10-19T02:11:34;0.98;;;0.98;;
67564;SDS011;54393;53.556;49.216;2023-10-19T02:14:07;1.12;;;1.08;;
67564;SDS011;54393;53.556;49.216;2023-10-19T02:16:43;1.73;;;0.77;;
67564;SDS011;54393;53.556;49.216;2023-10-19T02:19:17;0.62;;;0.62;;
67564;SDS011;54393;53.556;49.216;2023-10-19T02:21:48;0.75;;;0.75;;
67564;SDS011;54393;53.556;49.216;2023-10-19T02:24:15;0.70;;;0.70;;
67564;SDS011;54393;53.556;49.216;2023-10-19T02:26:42;0.77;;;0.77;;
67564;SDS011;54393;53.556;49.216;2023-10-19T02:29:10;1.12;;;0.90;;
67564;SDS011;54393;53.556;49.216;2023-10-19T02:31:39;0.80;;;0.77;;
67564;SDS011;54393;53.556;49.216;2023-10-19T02:34:06;0.82;;;0.80;;
67564;SDS011;54393;53.556;49.216;2023-10-19T02:36:35;0.90;;;0.90;;
67564;SDS011;54393;53.556;49.216;2023-10-19T02:39:06;0.90;;;0.90;;
67564;SDS011;54393;53.556;49.216;2023-10-19T02:41:43;0.82;;;0.82;;
67564;SDS011;54393;53.556;49.216;2023-10-19T02:44:18;0.95;;;0.90;;
67564;SDS011;54393;53.556;49.216;2023-10-19T02:46:56;1.00;;;1.00;;
67564;SDS011;54393;53.556;49.216;2023-10-19T02:49:30;0.90;;;0.90;;
67564;SDS011;54393;53.556;49.216;2023-10-19T02:51:57;0.73;;;0.70;;
67564;SDS011;54393;53.556;49.216;2023-10-19T02:54:30;1.10;;;0.90;;
67564;SDS011;54393;53.556;49.216;2023-10-19T02:56:59;0.70;;;0.70;;
67564;SDS011;54393;53.556;49.216;2023-10-19T02:59:27;0.88;;;0.88;;
67564;SDS011;54393;53.556;49.216;2023-10-19T03:01:56;0.75;;;0.75;;
67564;SDS011;54393;53.556;49.216;2023-10-19T03:04:32;1.35;;;0.80;;
67564;SDS011;54393;53.556;49.216;2023-10-19T03:07:02;1.08;;;1.05;;
67564;SDS011;54393;53.556;49.216;2023-10-19T03:09:29;0.90;;;0.90;;
67564;SDS011;54393;53.556;49.216;2023-10-19T03:11:57;1.08;;;0.98;;
67564;SDS011;54393;53.556;49.216;2023-10-19T03:14:34;0.98;;;0.73;;
67564;SDS011;54393;53.556;49.216;2023-10-19T03:17:00;2.28;;;0.90;;
67564;SDS011;54393;53.556;49.216;2023-10-19T03:19:29;0.93;;;0.93;;
67564;SDS011;54393;53.556;49.216;2023-10-19T03:21:55;0.90;;;0.90;;
67564;SDS011;54393;53.556;49.216;2023-10-19T03:24:25;0.85;;;0.85;;
67564;SDS011;54393;53.556;49.216;2023-10-19T03:27:08;1.27;;;1.17;;
67564;SDS011;54393;53.556;49.216;2023-10-19T03:29:42;1.35;;;1.25;;
67564;SDS011;54393;53.556;49.216;2023-10-19T03:32:14;0.82;;;0.82;;
67564;SDS011;54393;53.556;49.216;2023-10-19T03:34:47;0.73;;;0.73;;
67564;SDS011;54393;53.556;49.216;2023-10-19T03:37:20;1.08;;;0.98;;
67564;SDS011;54393;53.556;49.216;2023-10-19T03:39:51;0.85;;;0.85;;
67564;SDS011;54393;53.556;49.216;2023-10-19T03:42:18;0.70;;;0.70;;
67564;SDS011;54393;53.556;49.216;2023-10-19T03:44:46;1.05;;;1.05;;
67564;SDS011;54393;53.556;49.216;2023-10-19T03:47:12;1.10;;;1.00;;
67564;SDS011;54393;53.556;49.216;2023-10-19T03:49:43;1.15;;;1.00;;
67564;SDS011;54393;53.556;49.216;2023-10-19T03:52:12;0.90;;;0.90;;
67564;SDS011;54393;53.556;49.216;2023-10-19T03:54:39;0.90;;;0.90;;
67564;SDS011;54393;53.556;49.216;2023-10-19T03:57:07;2.00;;;0.85;;
67564;SDS011;54393;53.556;49.216;2023-10-19T04:00:06;1.10;;;1.00;;
67564;SDS011;54393;53.556;49.216;2023-10-19T04:02:40;0.80;;;0.80;;
67564;SDS011;54393;53.556;49.216;2023-10-19T04:05:10;1.05;;;0.93;;
67564;SDS011;54393;53.556;49.216;2023-10-19T04:07:40;1.23;;;1.12;;
67564;SDS011;54393;53.556;49.216;2023-10-19T04:10:07;0.93;;;0.93;;
67564;SDS011;54393;53.556;49.216;2023-10-19T04:12:34;1.20;;;1.10;;
67564;SDS011;54393;53.556;49.216;2023-10-19T04:15:03;0.70;;;0.70;;
67564;SDS011;54393;53.556;49.216;2023-10-19T04:17:40;1.45;;;1.00;;
67564;SDS011;54393;53.556;49.216;2023-10-19T04:20:11;0.90;;;0.90;;
67564;SDS011;54393;53.556;49.216;2023-10-19T04:22:44;0.98;;;0.98;;
67564;SDS011;54393;53.556;49.216;2023-10-19T04:25:18;0.95;;;0.90;;
67564;SDS011;54393;53.556;49.216;2023-10-19T04:27:46;0.90;;;0.90;;
67564;SDS011;54393;53.556;49.216;2023-10-19T04:30:14;1.70;;;0.95;;
67564;SDS011;54393;53.556;49.216;2023-10-19T04:32:45;1.52;;;0.90;;
67564;SDS011;54393;53.556;49.216;2023-10-19T04:35:12;1.15;;;1.00;;
67564;SDS011;54393;53.556;49.216;2023-10-19T04:37:40;0.80;;;0.80;;
67564;SDS011;54393;53.556;49.216;2023-10-19T04:40:10;0.75;;;0.75;;
67564;SDS011;54393;53.556;49.216;2023-10-19T04:42:37;0.98;;;0.98;;
67564;SDS011;54393;53.556;49.216;2023-10-19T04:45:04;1.60;;;0.95;;
67564;SDS011;54393;53.556;49.216;2023-10-19T04:47:34;0.80;;;0.80;;
67564;SDS011;54393;53.556;49.216;2023-10-19T04:50:01;1.23;;;1.12;;
67564;SDS011;54393;53.556;49.216;2023-10-19T04:52:28;1.33;;;1.08;;
67564;SDS011;54393;53.556;49.216;2023-10-19T04:54:55;1.00;;;0.90;;
67564;SDS011;54393;53.556;49.216;2023-10-19T04:57:22;1.00;;;0.95;;
67564;SDS011;54393;53.556;49.216;2023-10-19T04:59:48;1.20;;;1.10;;
67564;SDS011;54393;53.556;49.216;2023-10-19T05:02:15;2.12;;;1.00;;
67564;SDS011;54393;53.556;49.216;2023-10-19T05:04:42;1.00;;;1.00;;
67564;SDS011;54393;53.556;49.216;2023-10-19T05:07:09;0.90;;;0.90;;
67564;SDS011;54393;53.556;49.216;2023-10-19T05:09:45;0.90;;;0.90;;
67564;SDS011;54393;53.556;49.216;2023-10-19T05:12:12;1.45;;;1.20;;
67564;SDS011;54393;53.556;49.216;2023-10-19T05:14:39;1.15;;;1.05;;
67564;SDS011;54393;53.556;49.216;2023-10-19T05:17:09;0.95;;;0.90;;
67564;SDS011;54393;53.556;49.216;2023-10-19T05:19:36;0.90;;;0.80;;
67564;SDS011;54393;53.556;49.216;2023-10-19T05:22:04;1.02;;;1.02;;
67564;SDS011;54393;53.556;49.216;2023-10-19T05:24:32;1.25;;;1.15;;
67564;SDS011;54393;53.556;49.216;2023-10-19T05:27:02;1.33;;;1.10;;
67564;SDS011;54393;53.556;49.216;2023-10-19T05:29:31;1.20;;;1.10;;
67564;SDS011;54393;53.556;49.216;2023-10-19T05:32:01;1.35;;;1.25;;
67564;SDS011;54393;53.556;49.216;2023-10-19T05:34:28;1.12;;;1.02;;
67564;SDS011;54393;53.556;49.216;2023-10-19T05:36:57;1.27;;;1.00;;
67564;SDS011;54393;53.556;49.216;2023-10-19T05:39:27;1.40;;;1.30;;
67564;SDS011;54393;53.556;49.216;2023-10-19T05:41:56;1.58;;;1.30;;
67564;SDS011;54393;53.556;49.216;2023-10-19T05:44:26;1.20;;;1.10;;
67564;SDS011;54393;53.556;49.216;2023-10-19T05:46:55;1.40;;;1.25;;
67564;SDS011;54393;53.556;49.216;2023-10-19T05:49:23;1.45;;;1.30;;
67564;SDS011;54393;53.556;49.216;2023-10-19T05:51:50;1.95;;;1.15;;
67564;SDS011;54393;53.556;49.216;2023-10-19T05:54:17;3.58;;;1.58;;
67564;SDS011;54393;53.556;49.216;2023-10-19T05:56:43;3.95;;;1.50;;
67564;SDS011;54393;53.556;49.216;2023-10-19T05:59:11;2.78;;;1.60;;
67564;SDS011;54393;53.556;49.216;2023-10-19T06:01:38;1.27;;;1.17;;
67564;SDS011;54393;53.556;49.216;2023-10-19T06:04:06;2.10;;;1.52;;
67564;SDS011;54393;53.556;49.216;2023-10-19T06:06:33;4.12;;;1.42;;
67564;SDS011;54393;53.556;49.216;2023-10-19T06:08:59;1.50;;;1.40;;
67564;SDS011;54393;53.556;49.216;2023-10-19T06:11:29;4.53;;;1.95;;
67564;SDS011;54393;53.556;49.216;2023-10-19T06:13:59;1.60;;;1.10;;
67564;SDS011;54393;53.556;49.216;2023-10-19T06:16:26;1.35;;;1.23;;
67564;SDS011;54393;53.556;49.216;2023-10-19T06:18:53;1.58;;;1.27;;
67564;SDS011;54393;53.556;49.216;2023-10-19T06:21:19;2.33;;;1.17;;
67564;SDS011;54393;53.556;49.216;2023-10-19T06:23:46;1.70;;;1.45;;
67564;SDS011;54393;53.556;49.216;2023-10-19T06:26:13;4.15;;;1.48;;
67564;SDS011;54393;53.556;49.216;2023-10-19T06:28:40;1.10;;;1.00;;
67564;SDS011;54393;53.556;49.216;2023-10-19T06:31:07;2.12;;;1.20;;
67564;SDS011;54393;53.556;49.216;2023-10-19T06:33:33;3.35;;;1.35;;
67564;SDS011;54393;53.556;49.216;2023-10-19T06:36:01;1.20;;;1.10;;
67564;SDS011;54393;53.556;49.216;2023-10-19T06:38:29;1.87;;;1.05;;
67564;SDS011;54393;53.556;49.216;2023-10-19T06:40:56;1.30;;;1.20;;
67564;SDS011;54393;53.556;49.216;2023-10-19T06:43:24;1.50;;;1.40;;
67564;SDS011;54393;53.556;49.216;2023-10-19T06:45:54;1.42;;;1.33;;
67564;SDS011;54393;53.556;49.216;2023-10-19T06:48:21;1.90;;;1.30;;
67564;SDS011;54393;53.556;49.216;2023-10-19T06:50:47;2.97;;;1.40;;
67564;SDS011;54393;53.556;49.216;2023-10-19T06:53:14;1.65;;;1.30;;
67564;SDS011;54393;53.556;49.216;2023-10-19T06:55:40;2.33;;;1.20;;
67564;SDS011;54393;53.556;49.216;2023-10-19T06:58:07;2.75;;;1.40;;
67564;SDS011;54393;53.556;49.216;2023-10-19T07:00:34;2.03;;;1.40;;
67564;SDS011;54393;53.556;49.216;2023-10-19T07:06:49;3.17;;;1.33;;
67564;SDS011;54393;53.556;49.216;2023-10-19T07:09:16;5.60;;;1.55;;
67564;SDS011;54393;53.556;49.216;2023-10-19T07:11:44;2.25;;;1.35;;
67564;SDS011;54393;53.556;49.216;2023-10-19T07:14:11;2.20;;;1.42;;
67564;SDS011;54393;53.556;49.216;2023-10-19T07:16:39;1.65;;;1.12;;
67564;SDS011;54393;53.556;49.216;2023-10-19T07:19:06;1.45;;;1.30;;
67564;SDS011;54393;53.556;49.216;2023-10-19T07:21:35;2.05;;;1.35;;
67564;SDS011;54393;53.556;49.216;2023-10-19T07:24:03;2.37;;;1.65;;
67564;SDS011;54393;53.556;49.216;2023-10-19T07:26:44;2.00;;;1.30;;
67564;SDS011;54393;53.556;49.216;2023-10-19T07:29:28;1.60;;;1.48;;
67564;SDS011;54393;53.556;49.216;2023-10-19T07:53:09;5.45;;;3.40;;
67564;SDS011;54393;53.556;49.216;2023-10-19T07:55:36;4.15;;;3.72;;
67564;SDS011;54393;53.556;49.216;2023-10-19T07:58:04;2.78;;;2.58;;
67564;SDS011;54393;53.556;49.216;2023-10-19T08:00:32;3.87;;;3.03;;
67564;SDS011;54393;53.556;49.216;2023-10-19T08:03:02;3.97;;;3.15;;
67564;SDS011;54393;53.556;49.216;2023-10-19T08:05:29;3.60;;;2.95;;
67564;SDS011;54393;53.556;49.216;2023-10-19T08:07:56;2.87;;;2.60;;
67564;SDS011;54393;53.556;49.216;2023-10-19T08:10:26;4.15;;;2.72;;
67564;SDS011;54393;53.556;49.216;2023-10-19T08:12:52;3.00;;;2.75;;
67564;SDS011;54393;53.556;49.216;2023-10-19T08:15:20;3.20;;;2.28;;
67564;SDS011;54393;53.556;49.216;2023-10-19T08:17:50;3.00;;;2.35;;
67564;SDS011;54393;53.556;49.216;2023-10-19T08:20:19;4.10;;;2.45;;
67564;SDS011;54393;53.556;49.216;2023-10-19T08:22:51;2.75;;;2.35;;
67564;SDS011;54393;53.556;49.216;2023-10-19T08:25:19;2.42;;;2.22;;
67564;SDS011;54393;53.556;49.216;2023-10-19T08:27:46;2.62;;;2.30;;
67564;SDS011;54393;53.556;49.216;2023-10-19T08:30:17;2.92;;;2.08;;
67564;SDS011;54393;53.556;49.216;2023-10-19T08:32:44;4.28;;;2.20;;
67564;SDS011;54393;53.556;49.216;2023-10-19T08:35:14;1.92;;;1.80;;
67564;SDS011;54393;53.556;49.216;2023-10-19T08:37:45;2.67;;;2.08;;
67564;SDS011;54393;53.556;49.216;2023-10-19T08:40:12;3.17;;;2.05;;
67564;SDS011;54393;53.556;49.216;2023-10-19T08:42:43;1.50;;;1.40;;
67564;SDS011;54393;53.556;49.216;2023-10-19T08:45:13;1.95;;;1.85;;
67564;SDS011;54393;53.556;49.216;2023-10-19T08:47:58;3.47;;;2.40;;
67564;SDS011;54393;53.556;49.216;2023-10-19T08:50:27;3.63;;;2.60;;
67564;SDS011;54393;53.556;49.216;2023-10-19T08:52:58;2.72;;;2.37;;
67564;SDS011;54393;53.556;49.216;2023-10-19T08:55:28;4.57;;;3.00;;
67564;SDS011;54393;53.556;49.216;2023-10-19T08:57:56;3.25;;;2.60;;
67564;SDS011;54393;53.556;49.216;2023-10-19T09:00:25;2.87;;;2.45;;
67564;SDS011;54393;53.556;49.216;2023-10-19T09:02:52;3.47;;;2.70;;
67564;SDS011;54393;53.556;49.216;2023-10-19T09:05:22;2.83;;;2.58;;
67564;SDS011;54393;53.556;49.216;2023-10-19T09:07:49;4.25;;;2.40;;
67564;SDS011;54393;53.556;49.216;2023-10-19T09:10:22;5.70;;;2.50;;
67564;SDS011;54393;53.556;49.216;2023-10-19T09:15:33;7.28;;;2.42;;
67564;SDS011;54393;53.556;49.216;2023-10-19T09:18:20;3.50;;;2.15;;
67564;SDS011;54393;53.556;49.216;2023-10-19T09:20:48;3.35;;;2.62;;
67564;SDS011;54393;53.556;49.216;2023-10-19T09:23:23;3.50;;;2.00;;
67564;SDS011;54393;53.556;49.216;2023-10-19T09:28:21;3.05;;;1.90;;
67564;SDS011;54393;53.556;49.216;2023-10-19T09:30:49;2.35;;;1.95;;
67564;SDS011;54393;53.556;49.216;2023-10-19T09:33:16;4.57;;;2.08;;
67564;SDS011;54393;53.556;49.216;2023-10-19T09:35:46;2.15;;;1.65;;
67564;SDS011;54393;53.556;49.216;2023-10-19T09:38:16;1.75;;;1.65;;
67564;SDS011;54393;53.556;49.216;2023-10-19T09:40:53;4.28;;;1.77;;
67564;SDS011;54393;53.556;49.216;2023-10-19T09:43:33;1.75;;;1.60;;
67564;SDS011;54393;53.556;49.216;2023-10-19T09:46:06;2.05;;;1.83;;
67564;SDS011;54393;53.556;49.216;2023-10-19T09:48:34;1.90;;;1.42;;
67564;SDS011;54393;53.556;49.216;2023-10-19T09:51:11;1.67;;;1.42;;
67564;SDS011;54393;53.556;49.216;2023-10-19T09:53:38;1.95;;;1.83;;
67564;SDS011;54393;53.556;49.216;2023-10-19T09:56:10;4.12;;;1.98;;
67564;SDS011;54393;53.556;49.216;2023-10-19T10:01:11;1.98;;;1.70;;
67564;SDS011;54393;53.556;49.216;2023-10-19T10:06:08;2.00;;;1.80;;
67564;SDS011;54393;53.556;49.216;2023-10-19T10:08:36;1.65;;;1.55;;
67564;SDS011;54393;53.556;49.216;2023-10-19T10:11:17;2.05;;;1.50;;
67564;SDS011;54393;53.556;49.216;2023-10-19T10:13:45;2.00;;;1.90;;
67564;SDS011;54393;53.556;49.216;2023-10-19T10:16:19;3.30;;;1.70;;
67564;SDS011;54393;53.556;49.216;2023-10-19T10:18:55;2.00;;;1.80;;
67564;SDS011;54393;53.556;49.216;2023-10-19T10:21:29;3.50;;;1.90;;
67564;SDS011;54393;53.556;49.216;2023-10-19T10:23:56;2.58;;;1.60;;
67564;SDS011;54393;53.556;49.216;2023-10-19T10:26:25;2.55;;;1.42;;
67564;SDS011;54393;53.556;49.216;2023-10-19T10:29:08;1.75;;;1.50;;
67564;SDS011;54393;53.556;49.216;2023-10-19T10:31:48;2.33;;;1.58;;
67564;SDS011;54393;53.556;49.216;2023-10-19T10:39:27;1.77;;;1.67;;
67564;SDS011;54393;53.556;49.216;2023-10-19T10:41:59;1.77;;;1.67;;
67564;SDS011;54393;53.556;49.216;2023-10-19T10:47:08;3.08;;;1.80;;
67564;SDS011;54393;53.556;49.216;2023-10-19T10:49:55;1.42;;;1.33;;
67564;SDS011;54393;53.556;49.216;2023-10-19T10:52:32;1.73;;;1.50;;
67564;SDS011;54393;53.556;49.216;2023-10-19T10:55:09;1.45;;;1.35;;
67564;SDS011;54393;53.556;49.216;2023-10-19T10:57:36;1.45;;;1.20;;
67564;SDS011;54393;53.556;49.216;2023-10-19T11:00:07;1.60;;;1.50;;
67564;SDS011;54393;53.556;49.216;2023-10-19T11:02:41;1.65;;;1.55;;
67564;SDS011;54393;53.556;49.216;2023-10-19T11:05:10;1.60;;;1.50;;
67564;SDS011;54393;53.556;49.216;2023-10-19T11:07:38;1.55;;;1.45;;
67564;SDS011;54393;53.556;49.216;2023-10-19T11:10:05;1.40;;;1.20;;
67564;SDS011;54393;53.556;49.216;2023-10-19T11:12:32;1.55;;;1.30;;
67564;SDS011;54393;53.556;49.216;2023-10-19T11:14:59;2.33;;;1.80;;
67564;SDS011;54393;53.556;49.216;2023-10-19T11:17:26;1.87;;;1.42;;
67564;SDS011;54393;53.556;49.216;2023-10-19T11:19:56;1.40;;;1.30;;
67564;SDS011;54393;53.556;49.216;2023-10-19T11:22:23;1.55;;;1.30;;
67564;SDS011;54393;53.556;49.216;2023-10-19T11:24:53;1.65;;;1.10;;
67564;SDS011;54393;53.556;49.216;2023-10-19T11:27:26;1.40;;;1.30;;
67564;SDS011;54393;53.556;49.216;2023-10-19T11:29:53;3.15;;;1.85;;
67564;SDS011;54393;53.556;49.216;2023-10-19T11:32:23;1.40;;;1.30;;
67564;SDS011;54393;53.556;49.216;2023-10-19T11:34:54;1.77;;;1.37;;
67564;SDS011;54393;53.556;49.216;2023-10-19T11:37:21;1.52;;;1.37;;
67564;SDS011;54393;53.556;49.216;2023-10-19T11:39:48;1.73;;;1.50;;
67564;SDS011;54393;53.556;49.216;2023-10-19T11:42:15;1.60;;;1.50;;
67564;SDS011;54393;53.556;49.216;2023-10-19T11:44:43;1.73;;;1.62;;
67564;SDS011;54393;53.556;49.216;2023-10-19T11:47:14;1.52;;;1.37;;
67564;SDS011;54393;53.556;49.216;2023-10-19T11:49:41;2.12;;;1.73;;
67564;SDS011;54393;53.556;49.216;2023-10-19T11:52:08;3.72;;;1.62;;
67564;SDS011;54393;53.556;49.216;2023-10-19T11:54:34;1.60;;;1.50;;
67564;SDS011;54393;53.556;49.216;2023-10-19T11:57:01;2.10;;;1.45;;
67564;SDS011;54393;53.556;49.216;2023-10-19T11:59:30;2.15;;;1.30;;
67564;SDS011;54393;53.556;49.216;2023-10-19T12:01:57;1.62;;;1.30;;
67564;SDS011;54393;53.556;49.216;2023-10-19T12:04:25;1.80;;;1.65;;
67564;SDS011;54393;53.556;49.216;2023-10-19T12:06:55;1.80;;;1.70;;
67564;SDS011;54393;53.556;49.216;2023-10-19T12:09:34;1.45;;;1.35;;
67564;SDS011;54393;53.556;49.216;2023-10-19T12:12:03;1.50;;;1.40;;
67564;SDS011;54393;53.556;49.216;2023-10-19T12:14:36;1.67;;;1.55;;
67564;SDS011;54393;53.556;49.216;2023-10-19T12:17:09;1.60;;;1.48;;
67564;SDS011;54393;53.556;49.216;2023-10-19T12:19:44;1.67;;;1.58;;
67564;SDS011;54393;53.556;49.216;2023-10-19T12:22:22;1.58;;;1.48;;
67564;SDS011;54393;53.556;49.216;2023-10-19T12:24:56;1.95;;;1.62;;
67564;SDS011;54393;53.556;49.216;2023-10-19T12:27:24;2.55;;;1.75;;
67564;SDS011;54393;53.556;49.216;2023-10-19T12:29:54;1.40;;;1.30;;
67564;SDS011;54393;53.556;49.216;2023-10-19T12:32:26;2.37;;;1.70;;
67564;SDS011;54393;53.556;49.216;2023-10-19T12:34:57;2.97;;;1.52;;
67564;SDS011;54393;53.556;49.216;2023-10-19T12:37:26;2.78;;;1.80;;
67564;SDS011;54393;53.556;49.216;2023-10-19T12:39:57;1.80;;;1.50;;
67564;SDS011;54393;53.556;49.216;2023-10-19T12:42:24;2.53;;;1.58;;
67564;SDS011;54393;53.556;49.216;2023-10-19T12:44:59;2.78;;;2.08;;
67564;SDS011;54393;53.556;49.216;2023-10-19T12:47:32;1.35;;;1.25;;
67564;SDS011;54393;53.556;49.216;2023-10-19T12:50:10;1.80;;;1.70;;
67564;SDS011;54393;53.556;49.216;2023-10-19T12:52:39;3.05;;;1.92;;
67564;SDS011;54393;53.556;49.216;2023-10-19T12:55:16;2.05;;;1.73;;
67564;SDS011;54393;53.556;49.216;2023-10-19T12:57:43;1.70;;;1.37;;
67564;SDS011;54393;53.556;49.216;2023-10-19T13:00:24;1.90;;;1.40;;
67564;SDS011;54393;53.556;49.216;2023-10-19T13:02:57;2.20;;;1.80;;
67564;SDS011;54393;53.556;49.216;2023-10-19T13:05:33;1.55;;;1.45;;
67564;SDS011;54393;53.556;49.216;2023-10-19T13:08:07;1.95;;;1.73;;
67564;SDS011;54393;53.556;49.216;2023-10-19T13:10:40;2.33;;;1.95;;
67564;SDS011;54393;53.556;49.216;2023-10-19T13:13:11;4.87;;;1.45;;
67564;SDS011;54393;53.556;49.216;2023-10-19T13:15:43;2.03;;;1.67;;
67564;SDS011;54393;53.556;49.216;2023-10-19T13:18:11;1.65;;;1.55;;
67564;SDS011;54393;53.556;49.216;2023-10-19T13:20:54;1.90;;;1.58;;
67564;SDS011;54393;53.556;49.216;2023-10-19T13:23:22;2.08;;;1.87;;
67564;SDS011;54393;53.556;49.216;2023-10-19T13:25:51;2.00;;;1.80;;
67564;SDS011;54393;53.556;49.216;2023-10-19T13:28:18;1.62;;;1.45;;
67564;SDS011;54393;53.556;49.216;2023-10-19T13:30:47;2.00;;;1.80;;
67564;SDS011;54393;53.556;49.216;2023-10-19T13:33:14;1.48;;;1.37;;
67564;SDS011;54393;53.556;49.216;2023-10-19T13:35:41;2.75;;;1.65;;
67564;SDS011;54393;53.556;49.216;2023-10-19T13:38:09;1.95;;;1.58;;
67564;SDS011;54393;53.556;49.216;2023-10-19T13:40:37;2.35;;;1.52;;
67564;SDS011;54393;53.556;49.216;2023-10-19T13:43:09;1.87;;;1.62;;
67564;SDS011;54393;53.556;49.216;2023-10-19T13:45:39;2.35;;;2.15;;
67564;SDS011;54393;53.556;49.216;2023-10-19T13:48:08;2.25;;;2.05;;
67564;SDS011;54393;53.556;49.216;2023-10-19T13:50:35;3.00;;;1.58;;
67564;SDS011;54393;53.556;49.216;2023-10-19T13:53:02;2.08;;;1.87;;
67564;SDS011;54393;53.556;49.216;2023-10-19T13:55:30;1.65;;;1.50;;
67564;SDS011;54393;53.556;49.216;2023-10-19T13:57:56;2.95;;;2.20;;
67564;SDS011;54393;53.556;49.216;2023-10-19T14:00:24;2.55;;;1.75;;
67564;SDS011;54393;53.556;49.216;2023-10-19T14:03:17;2.20;;;1.83;;
67564;SDS011;54393;53.556;49.216;2023-10-19T14:05:46;2.70;;;1.67;;
67564;SDS011;54393;53.556;49.216;2023-10-19T14:08:13;1.77;;;1.62;;
67564;SDS011;54393;53.556;49.216;2023-10-19T14:10:40;2.60;;;1.67;;
67564;SDS011;54393;53.556;49.216;2023-10-19T14:13:07;1.50;;;1.37;;
67564;SDS011;54393;53.556;49.216;2023-10-19T14:15:48;3.08;;;1.70;;
67564;SDS011;54393;53.556;49.216;2023-10-19T14:18:17;2.10;;;1.70;;
67564;SDS011;54393;53.556;49.216;2023-10-19T14:20:43;2.00;;;1.52;;
67564;SDS011;54393;53.556;49.216;2023-10-19T14:23:10;3.35;;;1.45;;
67564;SDS011;54393;53.556;49.216;2023-10-19T14:25:36;2.15;;;1.50;;
67564;SDS011;54393;53.556;49.216;2023-10-19T14:28:04;1.77;;;1.67;;
67564;SDS011;54393;53.556;49.216;2023-10-19T14:30:35;1.77;;;1.67;;
67564;SDS011;54393;53.556;49.216;2023-10-19T14:33:01;1.40;;;1.30;;
67564;SDS011;54393;53.556;49.216;2023-10-19T14:35:29;2.20;;;1.70;;
67564;SDS011;54393;53.556;49.216;2023-10-19T14:37:56;2.03;;;1.58;;
67564;SDS011;54393;53.556;49.216;2023-10-19T14:40:26;1.83;;;1.70;;
67564;SDS011;54393;53.556;49.216;2023-10-19T14:42:53;1.20;;;1.10;;
67564;SDS011;54393;53.556;49.216;2023-10-19T14:45:25;1.50;;;1.40;;
67564;SDS011;54393;53.556;49.216;2023-10-19T14:48:14;1.87;;;1.60;;
67564;SDS011;54393;53.556;49.216;2023-10-19T14:50:47;1.70;;;1.60;;
67564;SDS011;54393;53.556;49.216;2023-10-19T14:53:22;1.52;;;1.42;;
67564;SDS011;54393;53.556;49.216;2023-10-19T14:55:50;1.70;;;1.60;;
67564;SDS011;54393;53.556;49.216;2023-10-19T14:58:17;1.05;;;0.95;;
67564;SDS011;54393;53.556;49.216;2023-10-19T15:00:44;1.83;;;1.73;;
67564;SDS011;54393;53.556;49.216;2023-10-19T15:03:12;1.50;;;1.40;;
67564;SDS011;54393;53.556;49.216;2023-10-19T15:05:39;2.15;;;1.73;;
67564;SDS011;54393;53.556;49.216;2023-10-19T15:08:07;2.22;;;1.62;;
67564;SDS011;54393;53.556;49.216;2023-10-19T15:10:35;1.55;;;1.45;;
67564;SDS011;54393;53.556;49.216;2023-10-19T15:13:06;1.35;;;1.27;;
67564;SDS011;54393;53.556;49.216;2023-10-19T15:15:34;2.92;;;1.60;;
67564;SDS011;54393;53.556;49.216;2023-10-19T15:18:02;2.00;;;1.40;;
67564;SDS011;54393;53.556;49.216;2023-10-19T15:20:29;1.60;;;1.50;;
67564;SDS011;54393;53.556;49.216;2023-10-19T15:22:57;2.10;;;1.77;;
67564;SDS011;54393;53.556;49.216;2023-10-19T15:25:24;1.60;;;1.42;;
67564;SDS011;54393;53.556;49.216;2023-10-19T15:27:51;1.52;;;1.42;;
67564;SDS011;54393;53.556;49.216;2023-10-19T15:30:18;1.50;;;1.40;;
67564;SDS011;54393;53.556;49.216;2023-10-19T15:32:49;1.92;;;1.73;;
67564;SDS011;54393;53.556;49.216;2023-10-19T15:35:16;1.58;;;1.48;;
67564;SDS011;54393;53.556;49.216;2023-10-19T15:37:52;1.60;;;1.42;;